Time;durP1;ratioP1;P1;durP2;ratioP2;P2;SDS_P1;SDS_P2;PMS_P1;PMS_P2;Temp;Humidity;BMP_temperature;BMP_pressure;BME280_temperature;BME280_humidity;BME280_pressure;Samples;Min_cycle;Max_cycle;Signal;HPM_P1;HPM_P2
2021/11/04 00:02:54;;;;;;;7.88;3.80;;;;;;;6.89;100.00;100008.75;6247046;28;20500;-66
2021/11/04 00:05:56;;;;;;;9.32;4.00;;;;;;;6.93;100.00;100003.31;6257295;28;20488;-67
2021/11/04 00:08:57;;;;;;;9.48;4.13;;;;;;;6.90;100.00;99997.38;6271606;28;20053;-66
2021/11/04 00:11:58;;;;;;;10.50;4.53;;;;;;;6.94;100.00;99993.69;6271695;28;20045;-66
2021/11/04 00:15:00;;;;;;;8.85;3.95;;;;;;;6.89;100.00;99988.69;6271517;28;20045;-67
2021/11/04 00:18:03;;;;;;;8.05;3.67;;;;;;;6.88;100.00;99994.00;6271671;28;20052;-66
2021/11/04 00:21:05;;;;;;;9.07;4.18;;;;;;;6.90;100.00;99994.75;6271437;28;20080;-68
2021/11/04 00:24:07;;;;;;;10.40;4.70;;;;;;;6.90;100.00;99990.38;6270527;28;20060;-66
2021/11/04 00:27:08;;;;;;;7.78;4.00;;;;;;;6.88;100.00;99989.63;6271129;28;20053;-66
2021/11/04 00:30:10;;;;;;;14.00;4.80;;;;;;;6.79;100.00;99990.94;6272275;28;20057;-66
2021/11/04 00:33:13;;;;;;;13.80;4.63;;;;;;;6.80;100.00;99983.94;6275369;28;20040;-66
2021/11/04 00:36:14;;;;;;;7.38;3.55;;;;;;;6.81;100.00;99977.78;6278309;28;20049;-66
2021/11/04 00:39:17;;;;;;;7.75;3.75;;;;;;;6.84;100.00;99980.25;6274861;28;20052;-66
2021/11/04 00:42:19;;;;;;;7.28;4.43;;;;;;;6.90;100.00;99987.78;6270858;28;20401;-66
2021/11/04 00:45:21;;;;;;;16.67;5.72;;;;;;;6.94;100.00;99991.09;6273055;28;20048;-65
2021/11/04 00:48:24;;;;;;;8.57;4.00;;;;;;;6.96;100.00;99989.25;6273259;28;20045;-67
2021/11/04 00:51:26;;;;;;;9.07;4.13;;;;;;;6.98;100.00;99990.00;6271099;28;20078;-66
2021/11/04 00:54:27;;;;;;;8.85;4.68;;;;;;;7.00;100.00;99983.78;6270890;28;20048;-67
2021/11/04 00:57:29;;;;;;;15.30;5.15;;;;;;;7.00;100.00;99986.41;6270965;28;20045;-66
2021/11/04 01:00:30;;;;;;;9.27;4.50;;;;;;;7.00;100.00;99981.19;6269369;28;20051;-66
2021/11/04 01:03:33;;;;;;;10.80;4.63;;;;;;;6.99;100.00;99983.84;6270946;28;20052;-67
2021/11/04 01:06:35;;;;;;;11.20;3.67;;;;;;;7.01;100.00;99987.25;6272911;28;20048;-66
2021/11/04 01:09:36;;;;;;;6.47;3.47;;;;;;;7.01;100.00;99985.47;6270926;28;20049;-67
2021/11/04 01:12:38;;;;;;;11.48;4.38;;;;;;;6.96;100.00;99973.59;6271034;28;20049;-66
2021/11/04 01:15:40;;;;;;;7.95;4.28;;;;;;;6.93;100.00;99990.25;6270547;28;20515;-65
2021/11/04 01:18:43;;;;;;;9.13;4.43;;;;;;;6.91;100.00;99989.50;6276935;28;20041;-66
2021/11/04 01:21:44;;;;;;;9.90;4.72;;;;;;;6.88;100.00;99981.78;6270410;28;20045;-66
2021/11/04 01:24:46;;;;;;;11.85;4.97;;;;;;;6.87;100.00;99987.94;6270731;28;20049;-67
2021/11/04 01:27:47;;;;;;;7.50;4.10;;;;;;;6.90;100.00;99993.00;6270641;28;20048;-66
2021/11/04 01:30:49;;;;;;;8.50;4.25;;;;;;;6.92;100.00;99987.72;6249292;28;20053;-66
2021/11/04 01:33:52;;;;;;;10.05;4.20;;;;;;;6.90;100.00;99982.56;6247474;28;20045;-66
2021/11/04 01:36:53;;;;;;;10.30;4.18;;;;;;;6.91;100.00;99983.41;6250661;28;20049;-66
2021/11/04 01:39:54;;;;;;;8.77;4.35;;;;;;;6.90;100.00;99974.72;6252055;28;20056;-66
2021/11/04 01:42:56;;;;;;;10.48;4.75;;;;;;;6.91;100.00;99978.19;6274881;28;20047;-65
2021/11/04 01:45:58;;;;;;;8.38;3.78;;;;;;;6.95;100.00;99969.25;6275019;28;20050;-66
2021/11/04 01:49:00;;;;;;;6.28;4.07;;;;;;;6.98;100.00;99967.34;6275139;28;20166;-66
2021/11/04 01:52:02;;;;;;;9.15;3.90;;;;;;;6.99;100.00;99952.50;6274908;28;20070;-66
2021/11/04 01:55:04;;;;;;;11.40;4.75;;;;;;;6.94;100.00;99955.34;6274732;28;20056;-66
2021/11/04 01:58:05;;;;;;;7.53;4.00;;;;;;;6.88;100.00;99955.69;6275175;28;20516;-66
2021/11/04 02:01:07;;;;;;;10.48;3.85;;;;;;;6.83;100.00;99950.69;6255099;28;20049;-66
2021/11/04 02:04:17;;;;;;;6.47;3.50;;;;;;;6.80;100.00;99943.00;6249671;28;20060;-66
2021/11/04 02:07:23;;;;;;;;;;;;;;;6.78;100.00;99936.19;6250324;28;20544;-66
2021/11/04 02:10:29;;;;;;;8.20;4.60;;;;;;;6.79;100.00;99945.69;6249762;28;19928;-66
2021/11/04 02:13:35;;;;;;;10.57;4.00;;;;;;;6.77;100.00;99939.72;6249547;28;20045;-65
2021/11/04 02:16:38;;;;;;;13.90;4.38;;;;;;;6.77;100.00;99937.94;6258366;28;20045;-66
2021/11/04 02:19:45;;;;;;;12.63;4.68;;;;;;;6.77;100.00;99931.88;6282267;28;20127;-66
2021/11/04 02:22:55;;;;;;;11.90;4.10;;;;;;;6.82;100.00;99932.50;6273967;28;20053;-66
2021/11/04 02:25:58;;;;;;;9.02;4.03;;;;;;;6.83;100.00;99932.41;6274340;28;20056;-66
2021/11/04 02:29:00;;;;;;;9.63;3.55;;;;;;;6.81;100.00;99930.78;6271682;28;20057;-66
2021/11/04 02:32:02;;;;;;;11.45;4.22;;;;;;;6.80;100.00;99921.28;6274013;28;20049;-66
2021/11/04 02:35:05;;;;;;;9.60;4.13;;;;;;;6.81;100.00;99931.66;6273723;28;20496;-65
2021/11/04 02:38:06;;;;;;;12.68;4.40;;;;;;;6.82;100.00;99922.91;6285379;28;20056;-66
2021/11/04 02:41:09;;;;;;;10.25;4.00;;;;;;;6.83;100.00;99927.19;6282924;28;20049;-65
2021/11/04 02:44:11;;;;;;;9.85;4.30;;;;;;;6.85;100.00;99929.72;6274775;28;20045;-66
2021/11/04 02:47:12;;;;;;;12.90;4.18;;;;;;;6.89;100.00;99927.78;6279079;28;20049;-66
2021/11/04 02:50:17;;;;;;;6.70;3.80;;;;;;;6.92;100.00;99932.88;6280800;28;20044;-66
2021/11/04 02:53:19;;;;;;;11.73;4.32;;;;;;;6.92;100.00;99932.88;6273171;28;20503;-66
2021/11/04 02:56:22;;;;;;;12.40;5.05;;;;;;;6.86;100.00;99927.03;6274846;28;20041;-66
2021/11/04 02:59:25;;;;;;;9.10;4.60;;;;;;;6.86;100.00;99919.22;6278795;28;20056;-66
2021/11/04 03:02:27;;;;;;;10.95;4.68;;;;;;;6.87;100.00;99933.09;6277201;28;20044;-66
2021/11/04 03:05:28;;;;;;;9.98;4.32;;;;;;;6.90;100.00;99932.94;6273112;28;20053;-66
2021/11/04 03:08:30;;;;;;;13.27;4.70;;;;;;;6.84;100.00;99930.63;6256898;28;20053;-66
2021/11/04 03:11:33;;;;;;;10.85;4.75;;;;;;;6.80;100.00;99942.16;6248379;28;20081;-66
2021/11/04 03:14:35;;;;;;;8.63;4.95;;;;;;;6.81;100.00;99946.44;6256089;28;20064;-66
2021/11/04 03:17:38;;;;;;;9.90;4.00;;;;;;;6.81;100.00;99949.06;6273036;28;20056;-66
2021/11/04 03:20:40;;;;;;;12.38;3.97;;;;;;;6.85;100.00;99945.38;6272521;28;20523;-66
2021/11/04 03:23:42;;;;;;;12.52;5.32;;;;;;;6.86;100.00;99953.16;6272247;28;20048;-66
2021/11/04 03:26:47;;;;;;;7.28;4.45;;;;;;;6.86;100.00;99952.31;6276849;28;20056;-66
2021/11/04 03:29:49;;;;;;;11.15;4.53;;;;;;;6.81;100.00;99947.31;6277839;28;20051;-66
2021/11/04 03:32:53;;;;;;;8.02;4.35;;;;;;;6.78;100.00;99933.56;6272262;28;20049;-66
2021/11/04 03:35:56;;;;;;;10.98;5.20;;;;;;;6.78;100.00;99942.25;6271906;28;20048;-66
2021/11/04 03:38:58;;;;;;;9.68;4.55;;;;;;;6.86;100.00;99947.94;6272205;28;20049;-65
2021/11/04 03:42:01;;;;;;;12.02;4.47;;;;;;;6.81;100.00;99946.44;6247511;28;20052;-66
2021/11/04 03:45:03;;;;;;;13.15;5.05;;;;;;;6.83;100.00;99944.63;6247364;28;20055;-66
2021/11/04 03:48:06;;;;;;;9.50;4.82;;;;;;;6.83;100.00;99958.53;6247471;28;20053;-67
2021/11/04 03:51:08;;;;;;;9.85;4.10;;;;;;;6.87;100.00;99946.16;6267007;28;20048;-68
2021/11/04 03:54:11;;;;;;;10.60;5.25;;;;;;;6.84;100.00;99944.53;6271527;28;20048;-68
2021/11/04 03:57:14;;;;;;;7.60;4.13;;;;;;;6.88;100.00;99950.47;6271194;28;20049;-67
2021/11/04 04:00:16;;;;;;;10.80;4.88;;;;;;;6.86;100.00;99957.53;6271966;28;20045;-67
2021/11/04 04:03:20;;;;;;;8.75;4.57;;;;;;;6.82;100.00;99956.84;6279998;28;20422;-67
2021/11/04 04:06:22;;;;;;;11.52;4.60;;;;;;;6.85;100.00;99961.03;6271549;28;20057;-67
2021/11/04 04:09:24;;;;;;;8.05;4.20;;;;;;;6.85;100.00;99958.44;6270251;28;20044;-67
2021/11/04 04:12:28;;;;;;;10.73;5.18;;;;;;;6.82;100.00;99963.84;6267985;28;20045;-65
2021/11/04 04:15:29;;;;;;;8.85;3.83;;;;;;;6.81;100.00;99968.22;6267776;28;20049;-67
2021/11/04 04:18:31;;;;;;;9.40;3.97;;;;;;;6.77;100.00;99965.84;6270127;28;20167;-66
2021/11/04 04:21:32;;;;;;;10.20;4.78;;;;;;;6.72;100.00;99959.97;6264724;28;20045;-68
2021/11/04 04:24:34;;;;;;;7.53;4.05;;;;;;;6.71;100.00;99966.97;6268228;28;20057;-66
2021/11/04 04:27:36;;;;;;;9.48;4.63;;;;;;;6.72;100.00;99979.13;6274396;28;20048;-65
2021/11/04 04:30:38;;;;;;;9.13;4.13;;;;;;;6.76;100.00;99979.78;6271399;28;20416;-65
2021/11/04 04:33:39;;;;;;;13.95;4.85;;;;;;;6.78;100.00;99983.19;6269880;28;20061;-65
2021/11/04 04:36:41;;;;;;;16.70;4.47;;;;;;;6.79;100.00;99990.94;6248431;28;20053;-66
2021/11/04 04:39:42;;;;;;;9.52;4.20;;;;;;;6.83;100.00;99989.03;6268878;28;20045;-66
2021/11/04 04:42:47;;;;;;;9.00;4.00;;;;;;;6.88;100.00;99991.41;6273414;28;20049;-66
2021/11/04 04:45:48;;;;;;;9.38;4.68;;;;;;;6.84;100.00;99999.38;6275239;28;20049;-65
2021/11/04 04:48:51;;;;;;;12.38;4.40;;;;;;;6.85;100.00;99997.59;6276123;28;20448;-65
2021/11/04 04:51:53;;;;;;;11.52;5.10;;;;;;;6.83;100.00;99987.25;6274644;28;20049;-68
2021/11/04 04:54:55;;;;;;;13.90;5.13;;;;;;;6.77;100.00;99984.13;6274537;28;20052;-67
2021/11/04 04:57:58;;;;;;;8.43;4.15;;;;;;;6.79;100.00;99980.50;6274632;28;20052;-68
2021/11/04 05:00:59;;;;;;;11.88;5.85;;;;;;;6.81;100.00;99981.28;6275172;28;20060;-67
2021/11/04 05:04:01;;;;;;;9.73;4.78;;;;;;;6.85;100.00;99990.63;6277527;28;20059;-65
2021/11/04 05:07:02;;;;;;;14.43;5.28;;;;;;;6.81;100.00;99989.09;6284272;28;20041;-65
2021/11/04 05:10:05;;;;;;;17.02;4.40;;;;;;;6.80;100.00;99989.16;6278826;28;20496;-67
2021/11/04 05:13:08;;;;;;;9.70;4.90;;;;;;;6.78;100.00;99994.47;6266483;28;20235;-65
2021/11/04 05:16:09;;;;;;;9.38;4.82;;;;;;;6.78;100.00;99989.25;6264335;28;20053;-65
2021/11/04 05:19:11;;;;;;;10.20;5.07;;;;;;;6.77;100.00;99989.34;6266828;28;20964;-66
2021/11/04 05:22:12;;;;;;;10.65;4.78;;;;;;;6.81;100.00;99996.06;6292597;22;20044;-70
2021/11/04 05:25:14;;;;;;;15.20;5.18;;;;;;;6.84;100.00;100002.00;6325137;28;20079;-70
2021/11/04 05:28:16;;;;;;;8.48;4.70;;;;;;;6.81;100.00;99996.06;6323126;28;20040;-69
2021/11/04 05:31:18;;;;;;;8.73;3.92;;;;;;;6.81;100.00;99996.94;6320132;28;20048;-69
2021/11/04 05:34:19;;;;;;;11.05;5.18;;;;;;;6.77;100.00;100002.41;6319356;28;20040;-68
2021/11/04 05:37:20;;;;;;;8.90;4.68;;;;;;;6.81;100.00;100010.00;6325398;28;20052;-69
2021/11/04 05:40:22;;;;;;;11.10;4.13;;;;;;;6.84;100.00;100001.16;6325229;28;20512;-69
2021/11/04 05:43:24;;;;;;;13.93;4.88;;;;;;;6.81;100.00;99996.06;6324839;28;20040;-69
2021/11/04 05:46:26;;;;;;;10.63;4.32;;;;;;;6.80;100.00;100003.06;6325222;28;20491;-69
2021/11/04 05:49:27;;;;;;;12.13;4.65;;;;;;;6.77;100.00;99994.56;6325042;28;20044;-69
2021/11/04 05:52:28;;;;;;;7.55;4.28;;;;;;;6.73;100.00;100003.47;6325178;28;20048;-69
2021/11/04 05:55:30;;;;;;;8.77;3.97;;;;;;;6.79;100.00;100005.75;6324812;28;20542;-70
2021/11/04 05:58:32;;;;;;;12.02;4.57;;;;;;;6.79;100.00;99997.94;6325067;28;20051;-69
2021/11/04 06:01:34;;;;;;;15.05;4.63;;;;;;;6.78;100.00;99998.84;6325067;28;20056;-68
2021/11/04 06:04:36;;;;;;;9.35;4.43;;;;;;;6.76;100.00;99998.06;6324409;28;20057;-69
2021/11/04 06:07:37;;;;;;;9.85;4.57;;;;;;;6.76;100.00;100003.28;6322370;28;20487;-69
2021/11/04 06:10:39;;;;;;;15.43;5.68;;;;;;;6.75;100.00;100007.66;6324327;28;20407;-69
2021/11/04 06:13:41;;;;;;;9.02;4.00;;;;;;;6.74;100.00;100007.75;6323518;28;20044;-69
2021/11/04 06:16:43;;;;;;;9.80;4.15;;;;;;;6.77;100.00;100005.84;6324297;28;20043;-69
2021/11/04 06:19:44;;;;;;;11.73;4.95;;;;;;;6.80;100.00;100010.06;6323784;28;20051;-69
2021/11/04 06:22:45;;;;;;;9.63;4.45;;;;;;;6.84;100.00;100008.97;6324128;28;20396;-69
2021/11/04 06:25:47;;;;;;;12.32;5.15;;;;;;;6.86;100.00;100004.53;6321989;28;20063;-68
2021/11/04 06:28:49;;;;;;;14.38;5.72;;;;;;;6.86;100.00;100004.53;6324014;28;20051;-69
2021/11/04 06:31:51;;;;;;;10.52;4.57;;;;;;;6.85;100.00;99998.44;6324175;28;20051;-69
2021/11/04 06:34:52;;;;;;;13.35;5.28;;;;;;;6.82;100.00;100000.41;6323232;28;20043;-69
2021/11/04 06:37:53;;;;;;;13.82;4.55;;;;;;;6.75;100.00;99997.22;6324135;28;20487;-69
2021/11/04 06:40:55;;;;;;;13.43;4.85;;;;;;;6.77;100.00;99991.94;6324032;28;20629;-69
2021/11/04 06:43:57;;;;;;;14.60;5.80;;;;;;;6.75;100.00;99997.22;6323337;28;20040;-69
2021/11/04 06:47:01;;;;;;;13.00;5.30;;;;;;;6.75;100.00;100004.22;6323830;28;20048;-69
2021/11/04 06:50:04;;;;;;;7.90;4.65;;;;;;;6.75;100.00;100012.06;6323619;28;20052;-69
2021/11/04 06:53:08;;;;;;;11.93;5.45;;;;;;;6.82;100.00;100013.44;6313525;28;20859;-67
2021/11/04 06:56:09;;;;;;;17.20;5.20;;;;;;;6.83;100.00;100015.13;6307717;28;20052;-69
2021/11/04 06:59:18;;;;;;;11.10;5.45;;;;;;;6.84;100.00;100014.22;6309841;28;20052;-70
2021/11/04 07:02:31;;;;;;;11.23;5.25;;;;;;;6.84;100.00;100019.44;6311808;28;20050;-68
2021/11/04 07:05:33;;;;;;;12.48;5.65;;;;;;;6.80;100.00;100025.72;6309579;28;20040;-69
2021/11/04 07:08:40;;;;;;;9.32;4.68;;;;;;;6.78;100.00;100030.19;6309026;28;20044;-69
2021/11/04 07:11:42;;;;;;;12.45;5.45;;;;;;;6.79;100.00;100026.66;6306459;28;20044;-70
2021/11/04 07:14:46;;;;;;;13.15;3.90;;;;;;;6.76;100.00;100026.78;6297379;28;20407;-68
2021/11/04 07:17:48;;;;;;;11.55;5.05;;;;;;;6.76;100.00;100034.63;6322006;28;20074;-68
2021/11/04 07:20:56;;;;;;;11.18;5.32;;;;;;;6.73;100.00;100034.78;6322701;28;20044;-69
2021/11/04 07:24:00;;;;;;;10.10;4.68;;;;;;;6.77;100.00;100031.13;6322551;28;20055;-70
2021/11/04 07:27:12;;;;;;;12.23;4.82;;;;;;;6.75;100.00;100033.78;6322585;28;20048;-69
2021/11/04 07:30:18;;;;;;;12.35;5.38;;;;;;;6.75;100.00;100028.56;6301721;28;20045;-70
2021/11/04 07:33:23;;;;;;;13.32;5.50;;;;;;;6.74;100.00;100026.03;6297044;28;20052;-69
2021/11/04 07:36:25;;;;;;;10.95;4.85;;;;;;;6.71;100.00;100037.47;6319571;28;20044;-69
2021/11/04 07:39:27;;;;;;;15.13;5.03;;;;;;;6.73;100.00;100032.19;6322358;28;20644;-70
2021/11/04 07:42:28;;;;;;;11.75;4.35;;;;;;;6.73;100.00;100033.03;6322496;28;20056;-70
2021/11/04 07:45:32;;;;;;;13.38;5.38;;;;;;;6.72;100.00;100031.34;6322285;28;20055;-69
2021/11/04 07:48:34;;;;;;;13.98;5.00;;;;;;;6.73;100.00;100032.19;6322204;28;20426;-69
2021/11/04 07:51:36;;;;;;;12.80;4.90;;;;;;;6.73;100.00;100024.34;6322386;28;20063;-70
2021/11/04 07:54:37;;;;;;;10.23;4.35;;;;;;;6.74;100.00;100031.25;6321644;28;20060;-70
2021/11/04 07:57:40;;;;;;;11.57;5.13;;;;;;;6.80;100.00;100023.94;6322267;28;20048;-70
2021/11/04 08:00:43;;;;;;;12.80;4.70;;;;;;;6.85;100.00;100039.41;6321837;28;20079;-70
2021/11/04 08:03:45;;;;;;;12.13;5.00;;;;;;;6.85;100.00;100042.00;6321669;28;20491;-69
2021/11/04 08:06:46;;;;;;;10.70;5.32;;;;;;;6.88;100.00;100044.47;6318652;28;20040;-69
2021/11/04 08:09:47;;;;;;;11.13;4.53;;;;;;;6.85;100.00;100042.00;6310947;28;20411;-69
2021/11/04 08:12:49;;;;;;;12.32;4.32;;;;;;;6.87;100.00;100045.41;6321649;28;20067;-70
2021/11/04 08:15:51;;;;;;;11.32;4.65;;;;;;;6.90;100.00;100037.41;6321538;28;20044;-69
2021/11/04 08:18:53;;;;;;;10.90;4.90;;;;;;;6.94;100.00;100054.59;6321717;28;20055;-70
2021/11/04 08:21:54;;;;;;;9.90;4.28;;;;;;;7.02;100.00;100049.84;6321361;28;20051;-70
2021/11/04 08:24:55;;;;;;;10.75;4.68;;;;;;;7.01;100.00;100049.94;6321457;28;20044;-69
2021/11/04 08:27:57;;;;;;;7.80;4.72;;;;;;;7.02;100.00;100049.00;6321551;28;20044;-69
2021/11/04 08:30:59;;;;;;;16.52;4.97;;;;;;;7.03;100.00;100046.31;6321542;28;20055;-69
2021/11/04 08:34:01;;;;;;;11.85;4.60;;;;;;;7.06;100.00;100042.72;6310670;28;20051;-69
2021/11/04 08:37:03;;;;;;;11.05;4.47;;;;;;;7.02;100.00;100039.41;6308948;28;20499;-69
2021/11/04 08:40:07;;;;;;;11.32;4.43;;;;;;;7.10;100.00;100037.25;6314812;28;20043;-70
2021/11/04 08:43:08;;;;;;;11.02;4.35;;;;;;;7.08;100.00;100040.84;6320785;28;20059;-70
2021/11/04 08:46:11;;;;;;;8.30;5.05;;;;;;;7.02;100.00;100031.56;6321050;28;20047;-70
2021/11/04 08:49:12;;;;;;;11.65;5.03;;;;;;;7.01;100.00;100034.28;6321200;28;20396;-69
2021/11/04 08:52:14;;;;;;;8.90;3.95;;;;;;;7.00;100.00;100032.59;6321031;28;20616;-69
2021/11/04 08:55:15;;;;;;;12.15;5.25;;;;;;;7.02;100.00;100034.19;6321073;28;20044;-69
2021/11/04 08:58:17;;;;;;;15.32;5.47;;;;;;;7.09;100.00;100030.34;6314536;28;20499;-69
2021/11/04 09:01:22;;;;;;;8.43;4.55;;;;;;;7.07;100.00;100026.13;6320872;28;20063;-70
2021/11/04 09:04:24;;;;;;;13.40;5.20;;;;;;;7.10;100.00;100031.19;6320561;28;20071;-70
2021/11/04 09:07:25;;;;;;;14.75;5.55;;;;;;;7.08;100.00;100033.03;6319097;28;20184;-69
2021/11/04 09:10:27;;;;;;;13.43;5.65;;;;;;;7.12;100.00;100043.25;6320093;28;20059;-69
2021/11/04 09:13:29;;;;;;;9.88;4.70;;;;;;;7.11;100.00;100038.94;6320358;28;20506;-68
2021/11/04 09:16:32;;;;;;;12.85;5.63;;;;;;;7.11;100.00;100043.34;6320398;28;20055;-68
2021/11/04 09:19:33;;;;;;;11.43;5.40;;;;;;;7.03;100.00;100040.25;6318829;28;20483;-69
2021/11/04 09:22:35;;;;;;;11.85;4.88;;;;;;;7.06;100.00;100042.72;6317422;28;20044;-69
2021/11/04 09:25:37;;;;;;;14.55;5.70;;;;;;;7.19;100.00;100042.94;6320293;28;20040;-69
2021/11/04 09:28:38;;;;;;;18.27;6.05;;;;;;;7.11;100.00;100043.34;6320899;28;20063;-70
2021/11/04 09:31:41;;;;;;;17.08;6.25;;;;;;;7.06;100.00;100042.72;6320817;28;20044;-70
2021/11/04 09:34:43;;;;;;;18.48;7.95;;;;;;;7.07;100.00;100044.41;6320127;28;20427;-69
2021/11/04 09:37:44;;;;;;;19.70;6.32;;;;;;;7.18;100.00;100047.34;6308401;28;20048;-69
2021/11/04 09:40:46;;;;;;;22.15;7.93;;;;;;;7.11;100.00;100054.63;6294968;28;20045;-69
2021/11/04 09:43:48;;;;;;;14.30;6.72;;;;;;;7.11;100.00;100053.78;6295234;28;20408;-68
2021/11/04 09:46:50;;;;;;;10.23;4.93;;;;;;;7.12;100.00;100061.53;6295331;28;20071;-69
2021/11/04 09:49:54;;;;;;;14.07;6.13;;;;;;;7.14;100.00;100058.88;6295664;28;20067;-69
2021/11/04 09:52:56;;;;;;;10.10;5.50;;;;;;;7.07;100.00;100055.69;6295275;28;20056;-69
2021/11/04 09:55:59;;;;;;;9.82;5.63;;;;;;;7.09;100.00;100066.09;6297038;28;20056;-69
2021/11/04 09:59:00;;;;;;;17.45;6.40;;;;;;;7.08;100.00;100060.00;6299807;28;20056;-69
2021/11/04 10:02:15;;;;;;;15.45;6.68;;;;;;;7.10;100.00;100062.56;6299860;28;20052;-69
2021/11/04 10:05:17;;;;;;;13.45;5.97;;;;;;;7.10;100.00;100058.16;6299413;28;20495;-69
2021/11/04 10:08:31;;;;;;;15.70;6.65;;;;;;;7.09;100.00;100066.94;6314205;28;20075;-69
2021/11/04 10:11:35;;;;;;;16.52;7.22;;;;;;;7.10;100.00;100068.63;6324723;28;20044;-70
2021/11/04 10:14:37;;;;;;;15.57;6.68;;;;;;;7.10;100.00;100062.56;6324375;28;20499;-69
2021/11/04 10:17:39;;;;;;;10.95;5.43;;;;;;;7.11;100.00;100074.69;6324167;28;20051;-69
2021/11/04 10:20:42;;;;;;;9.77;5.28;;;;;;;7.09;100.00;100081.75;6324311;28;20418;-69
2021/11/04 10:23:45;;;;;;;16.35;7.18;;;;;;;7.06;100.00;100076.69;6323840;28;20054;-70
2021/11/04 10:26:46;;;;;;;12.10;5.93;;;;;;;7.08;100.00;100080.88;6321770;28;20515;-70
2021/11/04 10:29:48;;;;;;;16.13;6.53;;;;;;;7.11;100.00;100083.38;6315894;28;20054;-70
2021/11/04 10:32:50;;;;;;;15.18;6.68;;;;;;;7.11;100.00;100075.53;6319656;28;20411;-70
2021/11/04 10:35:57;;;;;;;16.45;5.45;;;;;;;7.19;100.00;100075.16;6323387;28;20051;-69
2021/11/04 10:39:00;;;;;;;9.82;5.35;;;;;;;7.14;100.00;100092.00;6318825;28;20055;-69
2021/11/04 10:42:01;;;;;;;12.00;4.88;;;;;;;7.15;100.00;100086.69;6322767;28;20044;-69
2021/11/04 10:45:18;;;;;;;17.10;4.65;;;;;;;7.20;100.00;100078.59;6323484;28;20047;-68
2021/11/04 10:48:21;;;;;;;11.98;5.32;;;;;;;7.20;100.00;100083.84;6318116;28;20044;-68
2021/11/04 10:51:23;;;;;;;7.85;4.78;;;;;;;7.19;100.00;100082.16;6322463;28;20507;-69
2021/11/04 10:54:24;;;;;;;9.82;4.28;;;;;;;7.24;100.00;100086.22;6322006;28;20110;-68
2021/11/04 10:57:38;;;;;;;7.88;4.43;;;;;;;7.18;100.00;100098.75;6320569;28;20044;-68
2021/11/04 11:00:39;;;;;;;11.02;4.82;;;;;;;7.18;100.00;100098.75;6305540;28;20045;-68
2021/11/04 11:03:52;;;;;;;13.82;5.93;;;;;;;7.19;100.00;100096.06;6307452;28;20044;-68
2021/11/04 11:06:56;;;;;;;19.13;5.88;;;;;;;7.17;100.00;100099.66;6304048;28;20139;-67
2021/11/04 11:09:58;;;;;;;17.17;6.30;;;;;;;7.19;100.00;100095.22;6311784;28;20496;-68
2021/11/04 11:13:00;;;;;;;12.38;4.93;;;;;;;7.17;100.00;100087.44;6305885;28;20045;-67
2021/11/04 11:16:04;;;;;;;13.60;6.18;;;;;;;7.16;100.00;100083.13;6316513;28;20047;-69
2021/11/04 11:19:08;;;;;;;8.70;4.22;;;;;;;7.19;100.00;100085.59;6320265;28;20052;-69
2021/11/04 11:22:10;;;;;;;6.15;3.35;;;;;;;7.24;100.00;100075.75;6322305;28;20147;-69
2021/11/04 11:25:12;;;;;;;4.53;3.05;;;;;;;7.19;100.00;100087.38;6322305;28;20052;-69
2021/11/04 11:28:14;;;;;;;9.48;3.85;;;;;;;7.24;100.00;100081.00;6322282;28;20498;-69
2021/11/04 11:31:21;;;;;;;9.00;3.78;;;;;;;7.25;100.00;100085.28;6315347;22;20049;-66
2021/11/04 11:34:26;;;;;;;8.95;3.58;;;;;;;7.25;100.00;100087.91;6277966;28;20037;-67
2021/11/04 11:37:27;;;;;;;8.60;2.60;;;;;;;7.21;100.00;100083.75;6295118;28;20527;-65
2021/11/04 11:40:31;;;;;;;6.28;3.38;;;;;;;7.16;100.00;100088.34;6293086;28;20041;-65
2021/11/04 11:43:50;;;;;;;7.60;3.70;;;;;;;7.18;100.00;100088.31;6295935;28;20052;-68
2021/11/04 11:47:03;;;;;;;6.15;3.30;;;;;;;7.17;100.00;100095.28;6290643;28;20407;-66
2021/11/04 11:50:26;;;;;;;6.78;2.67;;;;;;;7.08;100.00;100091.34;6286721;28;20052;-66
2021/11/04 11:53:33;;;;;;;8.27;3.70;;;;;;;7.01;100.00;100095.19;6292312;28;20079;-65
2021/11/04 11:56:34;;;;;;;7.68;3.75;;;;;;;6.96;100.00;100096.34;6296669;28;20071;-65
2021/11/04 11:59:49;;;;;;;10.13;3.75;;;;;;;6.95;100.00;100099.84;6296853;28;20056;-65
2021/11/04 12:02:54;;;;;;;5.45;2.90;;;;;;;6.92;100.00;100100.88;6296608;28;20123;-65
2021/11/04 12:05:57;;;;;;;10.15;3.85;;;;;;;6.88;100.00;100101.09;6296476;28;20045;-67
2021/11/04 12:08:59;;;;;;;8.38;4.03;;;;;;;6.80;100.00;100104.06;6294555;28;20123;-66
2021/11/04 12:12:01;;;;;;;6.53;3.20;;;;;;;6.79;100.00;100105.84;6294996;28;20496;-66
2021/11/04 12:15:04;;;;;;;13.15;5.07;;;;;;;6.79;100.00;100099.78;6294293;28;20051;-64
2021/11/04 12:18:11;;;;;;;6.18;2.95;;;;;;;6.76;100.00;100108.59;6294496;28;20052;-65
2021/11/04 12:21:18;;;;;;;5.50;3.25;;;;;;;6.80;100.00;100106.69;6294634;28;20535;-65
2021/11/04 12:24:20;;;;;;;7.35;3.40;;;;;;;6.80;100.00;100110.13;6294500;28;20423;-64
2021/11/04 12:27:23;;;;;;;8.93;4.20;;;;;;;6.75;100.00;100117.34;6296149;28;20044;-65
2021/11/04 12:30:28;;;;;;;7.95;3.75;;;;;;;6.77;100.00;100106.84;6296136;28;20124;-66
2021/11/04 12:33:34;;;;;;;6.70;3.63;;;;;;;6.89;100.00;100102.78;6296113;28;20048;-66
2021/11/04 12:36:40;;;;;;;4.30;2.80;;;;;;;6.84;100.00;100106.47;6295601;28;20049;-66
2021/11/04 12:39:45;;;;;;;7.78;3.70;;;;;;;6.80;100.00;100104.06;6296312;28;20056;-65
2021/11/04 12:42:46;;;;;;;8.45;3.88;;;;;;;6.86;100.00;100111.63;6296390;28;20059;-65
2021/11/04 12:45:48;;;;;;;10.65;4.80;;;;;;;6.91;100.00;100111.41;6295909;28;20053;-68
2021/11/04 12:48:50;;;;;;;13.40;4.07;;;;;;;6.96;100.00;100120.69;6287947;28;20051;-65
2021/11/04 12:51:55;;;;;;;9.18;4.50;;;;;;;6.99;100.00;100123.16;6286609;28;20427;-65
2021/11/04 12:54:57;;;;;;;8.45;4.07;;;;;;;7.01;100.00;100126.53;6283651;28;20044;-65
2021/11/04 12:58:00;;;;;;;12.65;4.45;;;;;;;6.92;100.00;100123.53;6281563;28;20136;-65
2021/11/04 13:01:02;;;;;;;10.13;4.90;;;;;;;6.92;100.00;100131.38;6293911;28;20045;-65
2021/11/04 13:04:03;;;;;;;7.00;4.20;;;;;;;6.96;100.00;100133.75;6295639;28;20078;-65
2021/11/04 13:07:10;;;;;;;12.02;5.03;;;;;;;6.98;100.00;100134.53;6292122;28;20412;-66
2021/11/04 13:10:16;;;;;;;9.73;4.78;;;;;;;7.04;100.00;100130.75;6293785;28;20052;-65
2021/11/04 13:13:18;;;;;;;13.20;4.53;;;;;;;7.05;100.00;100137.69;6295563;28;20049;-65
2021/11/04 13:16:21;;;;;;;6.95;4.57;;;;;;;7.03;100.00;100132.53;6295385;28;20043;-65
2021/11/04 13:19:23;;;;;;;10.30;4.57;;;;;;;7.02;100.00;100133.44;6284969;28;20447;-65
2021/11/04 13:22:26;;;;;;;10.98;4.45;;;;;;;7.04;100.00;100144.69;6283426;28;20040;-66
2021/11/04 13:25:32;;;;;;;8.35;3.85;;;;;;;7.05;100.00;100146.38;6288894;28;20052;-66
2021/11/04 13:28:36;;;;;;;9.57;4.25;;;;;;;7.06;100.00;100145.44;6293522;28;20205;-66
2021/11/04 13:31:38;;;;;;;6.70;3.75;;;;;;;7.10;100.00;100144.38;6299474;28;20574;-66
2021/11/04 13:34:39;;;;;;;11.32;5.28;;;;;;;7.12;100.00;100147.75;6299414;28;20053;-66
2021/11/04 13:37:42;;;;;;;7.50;4.13;;;;;;;7.11;100.00;100150.44;6299345;28;20048;-66
2021/11/04 13:40:48;;;;;;;7.07;3.30;;;;;;;7.13;100.00;100159.09;6299958;28;20060;-66
2021/11/04 13:43:50;;;;;;;5.72;2.80;;;;;;;7.11;100.00;100166.97;6299815;28;20048;-66
2021/11/04 13:46:52;;;;;;;11.20;3.90;;;;;;;7.14;100.00;100165.16;6299614;28;20068;-66
2021/11/04 13:49:53;;;;;;;5.18;3.03;;;;;;;7.16;100.00;100171.13;6299887;28;20495;-66
2021/11/04 13:52:56;;;;;;;6.93;3.10;;;;;;;7.18;100.00;100170.16;6299826;28;20048;-67
2021/11/04 13:56:10;;;;;;;5.70;2.90;;;;;;;7.17;100.00;100175.44;6299441;28;20404;-66
2021/11/04 13:59:16;;;;;;;5.30;3.22;;;;;;;7.17;100.00;100176.28;6299590;28;20052;-66
2021/11/04 14:02:21;;;;;;;5.97;3.40;;;;;;;7.16;100.00;100182.44;6294960;28;20411;-66
2021/11/04 14:05:23;;;;;;;8.43;3.13;;;;;;;7.15;100.00;100182.50;6299076;28;20048;-67
2021/11/04 14:08:43;;;;;;;6.05;3.30;;;;;;;7.15;100.00;100185.97;6289799;28;20525;-66
2021/11/04 14:11:44;;;;;;;6.22;3.38;;;;;;;7.17;100.00;100184.13;6283971;28;20605;-66